Time;durP1;ratioP1;P1;durP2;ratioP2;P2;SDS_P1;SDS_P2;PMS_P1;PMS_P2;Temp;Humidity;BMP_temperature;BMP_pressure;BME280_temperature;BME280_humidity;BME280_pressure;Samples;Min_cycle;Max_cycle;Signal;HPM_P1;HPM_P2
2024/04/09 00:00:32;;;;;;;22.05;8.85;;;;;;;13.70;100.00;100229.69;5363834;26;19992;-67
2024/04/09 00:02:58;;;;;;;22.77;9.25;;;;;;;13.76;100.00;100249.06;5363719;26;20376;-64
2024/04/09 00:05:26;;;;;;;21.95;9.20;;;;;;;13.71;100.00;100292.53;5365725;26;19993;-69
2024/04/09 00:07:51;;;;;;;23.63;9.95;;;;;;;13.54;100.00;100308.75;5361543;26;20001;-65
2024/04/09 00:10:19;;;;;;;23.38;9.82;;;;;;;13.50;100.00;100315.00;5367388;26;20003;-73
2024/04/09 00:12:45;;;;;;;24.35;9.75;;;;;;;13.49;100.00;100326.53;5354084;26;20074;-73
2024/04/09 00:15:12;;;;;;;22.77;9.00;;;;;;;13.46;100.00;100319.50;5365879;26;20067;-72
2024/04/09 00:17:54;;;;;;;23.13;9.65;;;;;;;13.47;100.00;100326.56;5362776;26;20008;-73
2024/04/09 00:20:20;;;;;;;;;;;;;;;13.48;100.00;100324.78;5360137;26;20007;-72
2024/04/09 00:22:45;;;;;;;22.27;8.55;;;;;;;13.38;100.00;100308.13;5366979;26;19926;-65
2024/04/09 00:25:12;;;;;;;22.27;9.00;;;;;;;13.42;100.00;100305.38;5361528;26;20427;-73
2024/04/09 00:27:39;;;;;;;22.60;8.90;;;;;;;13.41;100.00;100294.78;5365414;26;20009;-66
2024/04/09 00:30:06;;;;;;;22.00;8.40;;;;;;;13.41;100.00;100286.81;5363043;26;19996;-64
2024/04/09 00:32:31;;;;;;;22.40;8.40;;;;;;;13.36;100.00;100294.00;5363760;26;20001;-72
2024/04/09 00:34:58;;;;;;;20.67;7.72;;;;;;;13.18;100.00;100281.88;5364706;26;20002;-67
2024/04/09 00:37:23;;;;;;;21.42;8.13;;;;;;;13.20;100.00;100282.72;5361448;26;20008;-73
2024/04/09 00:39:49;;;;;;;21.90;8.20;;;;;;;13.08;100.00;100276.69;5366864;26;19993;-72
2024/04/09 00:42:15;;;;;;;21.95;8.35;;;;;;;13.10;100.00;100271.34;5360407;26;20004;-73
2024/04/09 00:44:40;;;;;;;21.20;8.32;;;;;;;13.10;100.00;100260.72;5365648;26;19992;-67
2024/04/09 00:47:08;;;;;;;22.30;7.85;;;;;;;13.19;100.00;100242.03;5362279;26;20011;-65
2024/04/09 00:49:33;;;;;;;20.58;8.23;;;;;;;13.30;100.00;100235.69;5363848;26;19993;-67
2024/04/09 00:51:59;;;;;;;22.58;8.75;;;;;;;13.35;100.00;100218.81;5363665;26;19996;-67
2024/04/09 00:54:24;;;;;;;23.08;9.00;;;;;;;13.41;100.00;100215.16;5361590;26;20008;-67
2024/04/09 00:56:51;;;;;;;20.92;8.57;;;;;;;13.36;100.00;100222.31;5369263;26;20001;-65
2024/04/09 00:59:16;;;;;;;20.42;8.15;;;;;;;13.43;100.00;100231.94;5363834;26;19996;-70
2024/04/09 01:01:43;;;;;;;22.40;8.77;;;;;;;13.44;100.00;100231.03;5367642;26;20008;-68
2024/04/09 01:04:09;;;;;;;19.85;8.10;;;;;;;13.37;100.00;100238.22;5364597;26;19992;-64
2024/04/09 01:06:36;;;;;;;21.05;8.00;;;;;;;13.33;100.00;100262.16;5365539;26;19996;-67
2024/04/09 01:09:02;;;;;;;20.35;7.95;;;;;;;13.17;100.00;100257.09;5366855;26;20021;-69
2024/04/09 01:11:27;;;;;;;20.60;8.00;;;;;;;13.19;100.00;100265.94;5363562;26;20012;-70
2024/04/09 01:13:53;;;;;;;20.73;7.32;;;;;;;13.09;100.00;100280.19;5366722;26;19996;-68
2024/04/09 01:16:18;;;;;;;21.00;7.63;;;;;;;13.02;100.00;100287.41;5363823;26;20025;-65
2024/04/09 01:18:44;;;;;;;19.27;6.65;;;;;;;12.98;100.00;100279.50;5369321;26;20468;-65
2024/04/09 01:21:10;;;;;;;20.52;6.40;;;;;;;12.94;100.00;100286.63;5364558;26;19997;-66
2024/04/09 01:23:36;;;;;;;20.13;6.85;;;;;;;12.89;100.00;100294.66;5367663;26;20004;-66
2024/04/09 01:26:02;;;;;;;20.42;6.55;;;;;;;12.88;100.00;100308.78;5366141;26;20000;-64
2024/04/09 01:28:28;;;;;;;19.98;6.60;;;;;;;12.82;100.00;100313.31;5365594;26;20432;-68
2024/04/09 01:30:55;;;;;;;20.35;6.60;;;;;;;12.81;100.00;100300.94;5368681;26;19997;-66
2024/04/09 01:33:21;;;;;;;19.10;6.07;;;;;;;12.82;100.00;100298.28;5363210;26;20070;-65
2024/04/09 01:35:49;;;;;;;19.70;6.20;;;;;;;12.81;100.00;100285.91;5369331;26;20003;-64
2024/04/09 01:38:14;;;;;;;19.38;6.20;;;;;;;12.78;100.00;100271.81;5363672;26;20011;-65
2024/04/09 01:40:39;;;;;;;18.80;5.20;;;;;;;12.71;100.00;100261.31;5368145;26;19996;-64
2024/04/09 01:43:06;;;;;;;18.98;5.55;;;;;;;12.69;100.00;100248.97;5365442;26;20007;-71
2024/04/09 01:45:32;;;;;;;18.15;4.47;;;;;;;12.55;100.00;100215.56;5365743;26;20444;-67
2024/04/09 01:47:57;;;;;;;18.08;5.28;;;;;;;12.67;100.00;100195.09;5367027;26;20011;-65
2024/04/09 01:50:23;;;;;;;17.40;5.13;;;;;;;12.65;100.00;100195.06;5363818;26;20432;-66
2024/04/09 01:52:48;;;;;;;18.42;5.07;;;;;;;12.70;100.00;100216.25;5368876;26;19996;-66
2024/04/09 01:55:14;;;;;;;17.35;5.07;;;;;;;12.59;100.00;100250.00;5361559;26;19997;-64
2024/04/09 01:57:40;;;;;;;16.73;4.90;;;;;;;12.54;100.00;100244.75;5367949;26;20320;-72
2024/04/09 02:00:11;;;;;;;18.85;4.85;;;;;;;12.52;100.00;100262.44;5365147;26;20093;-75
2024/04/09 02:02:39;;;;;;;18.92;4.90;;;;;;;12.52;100.00;100273.94;5366939;26;19997;-75
2024/04/09 02:05:07;;;;;;;16.05;4.45;;;;;;;12.51;100.00;100281.91;5365182;26;20004;-64
2024/04/09 02:07:33;;;;;;;17.15;4.70;;;;;;;12.47;100.00;100302.25;5365270;26;20071;-65
2024/04/09 02:09:58;;;;;;;16.52;4.80;;;;;;;12.49;100.00;100311.06;5366721;26;20008;-64
2024/04/09 02:12:23;;;;;;;16.05;4.75;;;;;;;12.49;100.00;100336.69;5362270;26;20012;-65
2024/04/09 02:14:49;;;;;;;16.98;4.70;;;;;;;12.51;100.00;100350.84;5368376;26;20062;-72
2024/04/09 02:17:14;;;;;;;16.33;4.75;;;;;;;12.48;100.00;100356.16;5362512;26;20011;-71
2024/04/09 02:19:40;;;;;;;16.40;4.70;;;;;;;12.47;100.00;100371.19;5367460;26;19992;-73
2024/04/09 02:22:05;;;;;;;15.38;4.13;;;;;;;12.50;100.00;100352.59;5364775;26;19996;-73
2024/04/09 02:24:30;;;;;;;16.85;4.30;;;;;;;12.48;100.00;100361.44;5363514;26;20010;-72
2024/04/09 02:26:57;;;;;;;12.23;3.88;;;;;;;12.44;100.00;100350.00;5367024;26;20007;-73
2024/04/09 02:29:23;;;;;;;17.00;4.20;;;;;;;12.41;100.00;100350.06;5363147;26;19993;-72
2024/04/09 02:31:48;;;;;;;14.00;4.20;;;;;;;12.39;100.00;100351.81;5368604;26;20015;-73
2024/04/09 02:34:14;;;;;;;15.60;3.97;;;;;;;12.41;100.00;100350.06;5362861;26;19993;-72
2024/04/09 02:36:39;;;;;;;18.35;4.50;;;;;;;12.41;100.00;100344.75;5366786;26;20001;-65
2024/04/09 02:39:08;;;;;;;14.45;4.18;;;;;;;12.38;100.00;100348.31;5364578;26;19992;-65
2024/04/09 02:41:35;;;;;;;17.20;4.75;;;;;;;12.38;100.00;100350.97;5365578;26;20000;-64
2024/04/09 02:44:01;;;;;;;18.17;5.05;;;;;;;12.34;100.00;100353.66;5365576;26;19992;-65
2024/04/09 02:46:26;;;;;;;18.73;5.30;;;;;;;12.36;100.00;100370.41;5361829;26;20008;-64
2024/04/09 02:48:52;;;;;;;20.23;6.50;;;;;;;12.37;100.00;100374.81;5368140;26;20007;-66
2024/04/09 02:51:17;;;;;;;19.50;7.18;;;;;;;12.37;100.00;100374.81;5360212;26;20071;-67
2024/04/09 02:53:42;;;;;;;21.13;7.63;;;;;;;12.37;100.00;100369.53;5367472;26;20011;-69
2024/04/09 02:56:09;;;;;;;21.27;8.90;;;;;;;12.33;100.00;100367.78;5364059;26;20011;-68
2024/04/09 02:58:35;;;;;;;21.10;9.15;;;;;;;12.29;100.00;100352.81;5365782;26;20012;-64
2024/04/09 03:01:06;;;;;;;22.85;10.38;;;;;;;12.25;100.00;100341.38;5365835;26;20001;-74
2024/04/09 03:03:32;;;;;;;22.20;10.60;;;;;;;12.24;100.00;100336.09;5362863;26;19997;-66
2024/04/09 03:06:08;;;;;;;22.45;10.55;;;;;;;12.19;100.00;100338.81;5366395;26;20011;-66
2024/04/09 03:08:37;;;;;;;22.33;10.82;;;;;;;12.12;100.00;100351.22;5365159;26;19993;-66
2024/04/09 03:11:16;;;;;;;22.48;11.02;;;;;;;12.12;100.00;100348.56;5365423;26;20000;-67
2024/04/09 03:13:42;;;;;;;23.45;11.13;;;;;;;12.07;100.00;100354.81;5366849;26;20121;-67
2024/04/09 03:16:16;;;;;;;23.60;11.50;;;;;;;12.08;100.00;100352.16;5363823;26;20004;-70
2024/04/09 03:18:42;;;;;;;23.30;12.13;;;;;;;12.09;100.00;100348.63;5365322;26;20359;-64
2024/04/09 03:21:08;;;;;;;23.27;12.07;;;;;;;12.05;100.00;100346.88;5363914;26;20000;-74
2024/04/09 03:23:34;;;;;;;23.65;12.40;;;;;;;12.02;100.00;100346.91;5364783;26;20444;-76
2024/04/09 03:26:00;;;;;;;23.25;12.20;;;;;;;11.97;100.00;100333.72;5365531;26;20000;-71
2024/04/09 03:28:26;;;;;;;23.55;12.38;;;;;;;11.94;100.00;100349.66;5362950;26;20001;-70
2024/04/09 03:31:02;;;;;;;23.30;12.25;;;;;;;11.93;100.00;100353.19;5367417;26;20000;-74
2024/04/09 03:33:28;;;;;;;22.52;11.82;;;;;;;11.90;100.00;100360.22;5363067;26;19993;-69
2024/04/09 03:35:58;;;;;;;23.15;11.98;;;;;;;11.89;100.00;100355.84;5366657;26;19996;-65
2024/04/09 03:38:24;;;;;;;22.27;11.38;;;;;;;11.85;100.00;100354.97;5360802;26;20069;-66
2024/04/09 03:40:56;;;;;;;23.75;11.18;;;;;;;11.81;100.00;100367.38;5367597;26;20004;-65
2024/04/09 03:43:21;;;;;;;21.65;10.93;;;;;;;11.81;100.00;100393.84;5355804;26;20032;-64
2024/04/09 03:46:08;;;;;;;22.20;10.15;;;;;;;11.74;100.00;100413.31;5367684;26;20011;-64
2024/04/09 03:48:39;;;;;;;20.67;8.80;;;;;;;11.66;100.00;100423.09;5361669;26;20340;-65
2024/04/09 03:51:05;;;;;;;20.33;8.90;;;;;;;11.59;100.00;100429.31;5364221;26;20036;-65
2024/04/09 03:53:31;;;;;;;20.65;8.52;;;;;;;11.56;100.00;100437.28;5363647;26;20007;-64
2024/04/09 03:56:02;;;;;;;20.60;8.02;;;;;;;11.58;100.00;100459.34;5364229;26;20008;-64
2024/04/09 03:58:29;;;;;;;19.45;8.05;;;;;;;11.54;100.00;100450.50;5362754;26;19992;-67
2024/04/09 04:00:59;;;;;;;19.23;7.55;;;;;;;11.54;100.00;100447.00;5366415;26;20015;-70
2024/04/09 04:03:28;;;;;;;18.83;7.13;;;;;;;11.57;100.00;100460.22;5356308;26;20009;-66
2024/04/09 04:05:55;;;;;;;18.38;6.97;;;;;;;11.54;100.00;100469.03;5364944;26;19992;-70
2024/04/09 04:08:22;;;;;;;17.70;6.43;;;;;;;11.52;100.00;100479.66;5360808;26;20007;-64
2024/04/09 04:10:55;;;;;;;18.23;6.38;;;;;;;11.49;100.00;100487.59;5354157;26;20062;-65
2024/04/09 04:13:23;;;;;;;17.75;6.35;;;;;;;11.44;100.00;100492.03;5354752;26;19997;-64
2024/04/09 04:16:14;;;;;;;17.65;5.80;;;;;;;11.44;100.00;100496.44;5354570;26;20013;-67
2024/04/09 04:18:41;;;;;;;17.95;5.60;;;;;;;11.41;100.00;100502.63;5364339;26;20001;-64
2024/04/09 04:21:14;;;;;;;16.15;5.45;;;;;;;11.38;100.00;100502.66;5363391;26;20343;-66
2024/04/09 04:23:40;;;;;;;17.13;5.30;;;;;;;11.36;100.00;100499.13;5364844;26;19997;-65
2024/04/09 04:26:13;;;;;;;17.45;5.45;;;;;;;11.38;100.00;100505.28;5363589;26;20000;-65
2024/04/09 04:28:42;;;;;;;16.15;5.28;;;;;;;11.33;100.00;100500.03;5364745;26;20000;-65
2024/04/09 04:31:09;;;;;;;17.33;5.43;;;;;;;11.37;100.00;100506.16;5365039;26;20363;-71
2024/04/09 04:33:35;;;;;;;18.13;5.50;;;;;;;11.30;100.00;100507.09;5367265;26;19993;-72
2024/04/09 04:36:01;;;;;;;16.85;5.57;;;;;;;11.29;100.00;100502.69;5367892;26;20000;-71
2024/04/09 04:38:26;;;;;;;19.63;6.22;;;;;;;11.28;100.00;100506.22;5365227;26;19993;-68
2024/04/09 04:40:52;;;;;;;17.88;6.28;;;;;;;11.28;100.00;100506.22;5368566;26;20008;-74
2024/04/09 04:43:17;;;;;;;17.42;6.45;;;;;;;11.28;100.00;100503.56;5363977;26;20007;-66
2024/04/09 04:45:43;;;;;;;18.85;6.28;;;;;;;11.28;100.00;100519.44;5368584;26;20382;-68
2024/04/09 04:48:10;;;;;;;18.13;6.82;;;;;;;11.30;100.00;100522.97;5365825;26;20035;-65
2024/04/09 04:50:35;;;;;;;20.83;7.28;;;;;;;11.33;100.00;100523.84;5365334;26;20001;-65
2024/04/09 04:53:01;;;;;;;19.55;7.20;;;;;;;11.37;100.00;100527.34;5365601;26;20011;-67
2024/04/09 04:55:27;;;;;;;19.10;7.13;;;;;;;11.38;100.00;100528.25;5365314;26;20009;-66
2024/04/09 04:57:53;;;;;;;19.77;7.60;;;;;;;11.35;100.00;100531.78;5369406;26;20003;-73
2024/04/09 05:00:19;;;;;;;19.65;7.25;;;;;;;11.39;100.00;100535.28;5363829;26;20001;-71
2024/04/09 05:02:44;;;;;;;20.85;8.00;;;;;;;11.38;100.00;100522.94;5369336;26;19992;-64
2024/04/09 05:05:12;;;;;;;19.30;7.35;;;;;;;11.43;100.00;100535.28;5365077;26;20073;-68
2024/04/09 05:07:37;;;;;;;18.58;7.03;;;;;;;11.38;100.00;100531.75;5367126;26;20005;-67
2024/04/09 05:10:04;;;;;;;19.02;7.30;;;;;;;11.41;100.00;100539.69;5367058;26;20074;-67
2024/04/09 05:12:29;;;;;;;19.27;7.38;;;;;;;11.38;100.00;100550.28;5365141;26;20467;-69
2024/04/09 05:14:55;;;;;;;19.00;6.80;;;;;;;11.39;100.00;100546.75;5368388;26;19996;-66
2024/04/09 05:17:21;;;;;;;18.95;7.10;;;;;;;11.37;100.00;100548.50;5363688;26;20004;-69
2024/04/09 05:19:49;;;;;;;18.10;6.60;;;;;;;11.29;100.00;100561.78;5369227;26;20774;-74
2024/04/09 05:22:17;;;;;;;17.08;5.85;;;;;;;11.27;100.00;100558.28;5364063;26;20009;-71
2024/04/09 05:24:44;;;;;;;16.08;5.50;;;;;;;11.21;100.00;100560.91;5368634;26;19996;-67
2024/04/09 05:27:10;;;;;;;17.05;4.90;;;;;;;11.20;100.00;100560.91;5365274;26;20431;-65
2024/04/09 05:29:35;;;;;;;15.18;4.72;;;;;;;11.25;100.00;100559.16;5366528;26;20001;-66
2024/04/09 05:32:00;;;;;;;15.43;4.60;;;;;;;11.26;100.00;100577.66;5367141;26;20458;-65
2024/04/09 05:34:26;;;;;;;13.52;4.13;;;;;;;11.21;100.00;100574.13;5363984;26;20436;-65
2024/04/09 05:36:51;;;;;;;10.00;3.15;;;;;;;11.21;100.00;100565.34;5369518;26;19996;-65
2024/04/09 05:39:16;;;;;;;7.70;2.85;;;;;;;11.02;100.00;100552.16;5363547;26;20001;-66
2024/04/09 05:41:42;;;;;;;10.60;3.00;;;;;;;10.90;100.00;100552.19;5366642;26;20007;-73
2024/04/09 05:44:08;;;;;;;10.80;2.67;;;;;;;10.76;100.00;100539.88;5365452;26;20082;-73
2024/04/09 05:46:35;;;;;;;8.77;2.30;;;;;;;10.46;100.00;100543.41;5365999;26;20070;-72
2024/04/09 05:49:00;;;;;;;10.73;2.40;;;;;;;10.35;100.00;100543.38;5365749;26;20008;-73
2024/04/09 05:51:26;;;;;;;9.48;2.30;;;;;;;10.27;100.00;100546.00;5363830;26;19993;-73
2024/04/09 05:53:51;;;;;;;13.43;2.55;;;;;;;10.26;100.00;100541.59;5368848;26;20008;-70
2024/04/09 05:56:17;;;;;;;9.68;2.30;;;;;;;10.31;100.00;100541.63;5363262;26;20008;-65
2024/04/09 05:58:42;;;;;;;7.13;2.30;;;;;;;10.38;100.00;100527.56;5367584;26;20339;-65
2024/04/09 06:01:08;;;;;;;6.90;2.22;;;;;;;10.57;100.00;100532.81;5365332;26;20010;-69
2024/04/09 06:03:33;;;;;;;9.65;2.47;;;;;;;10.55;100.00;100516.97;5363744;26;20043;-73
2024/04/09 06:05:59;;;;;;;11.98;2.40;;;;;;;10.64;100.00;100524.00;5367873;26;20000;-73
2024/04/09 06:08:24;;;;;;;10.52;2.50;;;;;;;10.62;100.00;100536.34;5363652;26;20000;-73
2024/04/09 06:10:50;;;;;;;10.93;2.30;;;;;;;10.66;100.00;100529.28;5368814;26;20390;-73
2024/04/09 06:13:15;;;;;;;9.68;2.40;;;;;;;10.64;100.00;100530.19;5363048;26;20001;-73
2024/04/09 06:15:41;;;;;;;11.00;2.20;;;;;;;10.61;100.00;100531.94;5367230;26;20452;-65
2024/04/09 06:18:07;;;;;;;13.10;2.40;;;;;;;10.64;100.00;100531.94;5365236;26;20351;-73
2024/04/09 06:20:33;;;;;;;13.15;2.65;;;;;;;10.64;100.00;100537.22;5362765;26;20067;-71
2024/04/09 06:22:58;;;;;;;12.05;2.40;;;;;;;10.66;100.00;100532.84;5363511;26;20016;-73
2024/04/09 06:25:23;;;;;;;11.15;2.50;;;;;;;10.66;100.00;100538.13;5368615;26;19992;-66
2024/04/09 06:27:51;;;;;;;12.07;2.50;;;;;;;10.71;100.00;100556.63;5362848;26;20012;-69
2024/04/09 06:30:17;;;;;;;11.00;2.40;;;;;;;10.71;100.00;100551.31;5366912;26;19992;-68
2024/04/09 06:32:42;;;;;;;8.73;2.38;;;;;;;10.74;100.00;100552.19;5362421;26;20403;-72
2024/04/09 06:35:08;;;;;;;12.60;2.40;;;;;;;10.75;100.00;100561.03;5365765;26;20004;-69
2024/04/09 06:37:37;;;;;;;10.07;2.25;;;;;;;10.75;100.00;100558.38;5366525;26;19996;-66
2024/04/09 06:40:05;;;;;;;12.15;2.50;;;;;;;10.74;100.00;100562.75;5364962;26;20457;-66
2024/04/09 06:42:31;;;;;;;13.70;2.22;;;;;;;10.72;100.00;100566.31;5366413;26;19996;-66
2024/04/09 06:44:56;;;;;;;9.63;2.40;;;;;;;10.67;100.00;100571.56;5363086;26;20075;-67
2024/04/09 06:47:22;;;;;;;12.48;2.30;;;;;;;10.65;100.00;100560.13;5368267;26;20393;-66
2024/04/09 06:49:47;;;;;;;11.32;2.28;;;;;;;10.62;100.00;100583.94;5362384;26;20424;-64
2024/04/09 06:52:13;;;;;;;11.55;2.40;;;;;;;10.62;100.00;100589.22;5366713;26;20443;-66
2024/04/09 06:54:39;;;;;;;13.98;2.58;;;;;;;10.62;100.00;100582.16;5363961;26;20440;-65
2024/04/09 06:57:04;;;;;;;11.77;2.25;;;;;;;10.63;100.00;100583.06;5364708;26;20008;-64
2024/04/09 06:59:30;;;;;;;15.13;2.40;;;;;;;10.60;100.00;100585.69;5366107;26;20069;-67
2024/04/09 07:01:55;;;;;;;14.18;2.35;;;;;;;10.63;100.00;100599.78;5362801;26;20001;-65
2024/04/09 07:04:20;;;;;;;10.15;2.28;;;;;;;10.67;100.00;100602.44;5367823;26;20011;-65
2024/04/09 07:06:46;;;;;;;9.93;2.30;;;;;;;10.61;100.00;100608.59;5360446;26;20008;-65
2024/04/09 07:09:16;;;;;;;10.05;2.50;;;;;;;10.59;100.00;100605.94;5366511;26;20071;-70
2024/04/09 07:11:43;;;;;;;14.95;2.80;;;;;;;10.64;100.00;100616.53;5361452;26;19992;-65
2024/04/09 07:14:08;;;;;;;12.73;2.30;;;;;;;10.70;100.00;100611.22;5365222;26;20375;-69
2024/04/09 07:16:34;;;;;;;12.45;2.30;;;;;;;10.68;100.00;100607.72;5365617;26;19996;-69
2024/04/09 07:18:59;;;;;;;11.88;2.17;;;;;;;10.68;100.00;100620.06;5363367;26;20001;-68
2024/04/09 07:21:25;;;;;;;9.73;2.25;;;;;;;10.73;100.00;100626.22;5366975;26;20435;-65
2024/04/09 07:23:51;;;;;;;14.95;2.60;;;;;;;10.72;100.00;100613.91;5361985;26;20007;-65
2024/04/09 07:26:16;;;;;;;14.98;2.50;;;;;;;10.68;100.00;100620.94;5367162;26;20043;-64
2024/04/09 07:28:42;;;;;;;11.45;2.30;;;;;;;10.69;100.00;100625.34;5363106;26;20463;-66
2024/04/09 07:31:08;;;;;;;8.77;2.10;;;;;;;10.86;100.00;100613.88;5364704;26;19992;-65
2024/04/09 07:33:33;;;;;;;10.77;2.30;;;;;;;10.91;100.00;100617.41;5363173;26;20003;-65
2024/04/09 07:35:59;;;;;;;9.48;2.22;;;;;;;11.06;100.00;100612.09;5362712;26;19997;-64
2024/04/09 07:38:24;;;;;;;9.52;2.20;;;;;;;11.13;100.00;100618.28;5366952;26;19996;-67
2024/04/09 07:40:50;;;;;;;10.57;2.25;;;;;;;11.07;100.00;100603.28;5361595;26;20004;-64
2024/04/09 07:43:15;;;;;;;11.18;2.20;;;;;;;11.24;100.00;100618.25;5367022;26;20004;-72
2024/04/09 07:45:40;;;;;;;12.30;2.35;;;;;;;11.29;100.00;100616.47;5363378;26;20008;-72
2024/04/09 07:48:07;;;;;;;12.77;2.30;;;;;;;11.13;100.00;100619.16;5364169;26;19997;-73
2024/04/09 07:50:33;;;;;;;10.15;2.10;;;;;;;11.08;100.00;100625.31;5365328;26;20004;-73
2024/04/09 07:52:58;;;;;;;12.13;2.10;;;;;;;11.06;100.00;100625.31;5362262;26;20066;-73
2024/04/09 07:55:24;;;;;;;11.52;2.30;;;;;;;11.08;100.00;100626.22;5367238;26;20002;-71
2024/04/09 07:57:49;;;;;;;9.75;2.20;;;;;;;11.07;100.00;100608.56;5361470;26;20417;-70
2024/04/09 08:00:14;;;;;;;10.55;2.10;;;;;;;10.98;100.00;100619.19;5366119;26;19996;-73
2024/04/09 08:02:48;;;;;;;14.52;2.22;;;;;;;11.09;100.00;100625.31;5363082;26;20000;-73
2024/04/09 08:05:16;;;;;;;10.45;2.35;;;;;;;11.23;100.00;100635.03;5362950;26;20036;-73
2024/04/09 08:07:42;;;;;;;12.30;2.40;;;;;;;11.14;100.00;100643.84;5348749;26;20012;-72
2024/04/09 08:10:12;;;;;;;12.25;2.13;;;;;;;10.89;100.00;100629.75;5353515;26;20004;-71
2024/04/09 08:12:45;;;;;;;9.38;2.15;;;;;;;10.84;100.00;100642.97;5349797;26;20015;-73
2024/04/09 08:15:11;;;;;;;15.60;2.30;;;;;;;10.73;100.00;100636.78;5354953;26;20019;-72
2024/04/09 08:17:37;;;;;;;11.77;2.40;;;;;;;10.82;100.00;100645.63;5360081;26;20344;-73
2024/04/09 08:20:07;;;;;;;12.18;2.33;;;;;;;10.92;100.00;100677.34;5365039;26;19997;-69
2024/04/09 08:22:34;;;;;;;10.63;2.20;;;;;;;10.78;100.00;100678.22;5362438;26;20370;-64
2024/04/09 08:24:59;;;;;;;13.48;2.38;;;;;;;10.80;100.00;100688.81;5364389;26;19997;-66
2024/04/09 08:27:25;;;;;;;9.95;2.20;;;;;;;10.82;100.00;100703.78;5364111;26;20009;-64
2024/04/09 08:29:50;;;;;;;12.32;2.20;;;;;;;10.81;100.00;100709.94;5366219;26;20015;-70
2024/04/09 08:32:15;;;;;;;13.38;2.40;;;;;;;10.80;100.00;100721.44;5361076;26;20008;-73
2024/04/09 08:34:40;;;;;;;10.93;2.50;;;;;;;10.82;100.00;100727.59;5366725;26;20008;-73
2024/04/09 08:37:06;;;;;;;13.77;2.20;;;;;;;10.81;100.00;100720.53;5360935;26;20001;-72
2024/04/09 08:39:31;;;;;;;13.32;2.45;;;;;;;10.88;100.00;100736.41;5364265;26;19997;-71
2024/04/09 08:41:57;;;;;;;9.35;2.20;;;;;;;10.77;100.00;100713.47;5364663;26;20390;-72
2024/04/09 08:44:25;;;;;;;12.50;2.40;;;;;;;10.91;100.00;100720.56;5361159;26;20405;-70
2024/04/09 08:46:53;;;;;;;11.70;2.30;;;;;;;11.05;100.00;100742.59;5365977;26;20004;-71
2024/04/09 08:49:19;;;;;;;11.57;2.30;;;;;;;11.18;100.00;100729.38;5360738;26;19996;-74
2024/04/09 08:51:46;;;;;;;12.70;2.42;;;;;;;11.46;100.00;100748.75;5366414;26;19992;-72
2024/04/09 08:54:12;;;;;;;16.73;2.30;;;;;;;12.07;100.00;100757.50;5360567;26;20013;-72
2024/04/09 08:56:37;;;;;;;13.90;2.60;;;;;;;12.16;100.00;100738.97;5365051;26;20004;-67
2024/04/09 08:59:04;;;;;;;12.02;2.17;;;;;;;12.37;100.00;100762.69;5362467;26;20069;-67
2024/04/09 09:01:30;;;;;;;10.85;2.13;;;;;;;12.36;100.00;100749.44;5363097;26;19993;-66
2024/04/09 09:03:55;;;;;;;10.07;1.90;;;;;;;12.28;100.00;100738.88;5364414;26;20012;-67
2024/04/09 09:06:20;;;;;;;8.48;2.05;;;;;;;12.25;100.00;100738.03;5360539;26;19997;-66
2024/04/09 09:08:46;;;;;;;12.68;2.30;;;;;;;12.00;100.00;100759.31;5366203;26;20323;-65
2024/04/09 09:11:20;;;;;;;11.20;2.22;;;;;;;11.87;100.00;100750.50;5360751;26;20387;-74
2024/04/09 09:13:45;;;;;;;12.13;2.20;;;;;;;12.03;100.00;100756.66;5347877;26;20342;-65
2024/04/09 09:16:11;;;;;;;12.43;2.20;;;;;;;12.31;100.00;100738.00;5364369;26;20024;-66
2024/04/09 09:18:36;;;;;;;10.13;2.13;;;;;;;12.72;100.00;100771.38;5332258;26;20092;-70
2024/04/09 09:21:03;;;;;;;12.07;2.10;;;;;;;13.29;100.00;100762.13;5356502;26;20324;-70
2024/04/09 09:23:29;;;;;;;8.88;2.00;;;;;;;13.64;100.00;100751.22;5368281;26;20000;-71
2024/04/09 09:25:55;;;;;;;10.07;2.17;;;;;;;13.40;100.00;100763.84;5364991;26;19992;-69
2024/04/09 09:28:22;;;;;;;11.30;2.22;;;;;;;13.60;100.00;100745.09;5364597;26;20326;-66
2024/04/09 09:30:48;;;;;;;8.35;1.92;;;;;;;13.40;100.00;100761.19;5366682;26;20339;-66
2024/04/09 09:33:26;;;;;;;10.80;2.05;;;;;;;13.32;100.00;100776.25;5364755;26;20001;-68
2024/04/09 09:35:52;;;;;;;11.07;2.10;;;;;;;13.26;100.00;100786.94;5365780;26;20435;-67
2024/04/09 09:38:19;;;;;;;7.68;2.10;;;;;;;13.17;100.00;100789.66;5365548;26;20070;-72
2024/04/09 09:40:48;;;;;;;6.20;1.80;;;;;;;13.06;100.00;100757.88;5367327;26;19992;-73
2024/04/09 09:43:18;;;;;;;12.70;2.20;;;;;;;12.92;100.00;100776.56;5365024;26;20000;-75
2024/04/09 09:45:44;;;;;;;10.02;2.20;;;;;;;12.86;100.00;100766.00;5367254;26;20078;-74
2024/04/09 09:48:16;;;;;;;9.80;2.10;;;;;;;12.52;100.00;100772.38;5363760;26;20144;-74
2024/04/09 09:50:42;;;;;;;7.47;2.00;;;;;;;12.36;100.00;100770.66;5367765;26;19992;-74
2024/04/09 09:53:08;;;;;;;7.38;1.90;;;;;;;12.94;100.00;100766.81;5363217;26;20387;-65
2024/04/09 09:55:35;;;;;;;11.23;2.17;;;;;;;14.07;100.00;100760.53;5369109;26;20000;-75
2024/04/09 09:58:03;;;;;;;5.68;1.80;;;;;;;14.07;100.00;100760.53;5361307;26;20012;-67
2024/04/09 10:00:30;;;;;;;10.70;2.03;;;;;;;14.26;100.00;100753.22;5368124;26;19992;-65
2024/04/09 10:02:56;;;;;;;8.43;1.80;;;;;;;14.60;100.00;100777.59;5364190;26;20002;-65
2024/04/09 10:05:22;;;;;;;8.05;1.90;;;;;;;15.03;100.00;100777.91;5366389;26;20004;-66
2024/04/09 10:07:48;;;;;;;12.38;2.17;;;;;;;14.76;100.00;100772.09;5364487;26;20446;-72
2024/04/09 10:10:24;;;;;;;8.55;2.10;;;;;;;14.81;100.00;100783.56;5357081;26;20028;-67
2024/04/09 10:12:52;;;;;;;7.72;1.80;;;;;;;15.83;100.00;100766.84;5365792;26;20013;-65
2024/04/09 10:15:25;;;;;;;6.70;1.98;;;;;;;15.75;100.00;100759.84;5365623;26;20035;-71
2024/04/09 10:18:04;;;;;;;8.68;1.95;;;;;;;15.58;100.00;100778.81;5365809;26;20353;-71
2024/04/09 10:20:31;;;;;;;7.20;2.00;;;;;;;14.77;100.00;100787.19;5360337;26;19996;-71
2024/04/09 10:23:01;;;;;;;8.02;1.85;;;;;;;14.58;100.00;100805.13;5355152;26;20000;-70
2024/04/09 10:25:41;;;;;;;9.63;2.10;;;;;;;14.53;100.00;100817.59;5346189;26;20001;-68
2024/04/09 10:28:08;;;;;;;11.75;2.10;;;;;;;14.02;100.00;100802.22;5363524;26;19996;-74
2024/04/09 10:30:37;;;;;;;8.63;1.77;;;;;;;13.49;100.00;100823.97;5366221;26;19997;-74
2024/04/09 10:33:04;;;;;;;6.50;1.90;;;;;;;13.23;100.00;100817.03;5364109;26;20439;-74
2024/04/09 10:35:30;;;;;;;7.68;1.90;;;;;;;13.07;100.00;100861.34;5359061;26;20001;-74
2024/04/09 10:37:58;;;;;;;8.57;2.17;;;;;;;13.02;100.00;100822.50;5366232;26;19997;-72
2024/04/09 10:40:24;;;;;;;9.68;2.10;;;;;;;13.93;100.00;100838.59;5363152;26;20100;-73
2024/04/09 10:42:51;;;;;;;8.57;1.90;;;;;;;13.91;100.00;100828.91;5365057;26;19997;-74
2024/04/09 10:45:16;;;;;;;5.72;1.80;;;;;;;13.57;100.00;100826.53;5364825;26;20008;-74
2024/04/09 10:47:44;;;;;;;8.25;1.90;;;;;;;13.31;100.00;100821.41;5364325;26;20001;-74
2024/04/09 10:50:09;;;;;;;9.70;2.00;;;;;;;13.27;100.00;100825.00;5366621;26;19996;-72
2024/04/09 10:52:35;;;;;;;8.52;1.90;;;;;;;13.11;100.00;100841.00;5362596;26;19993;-74
2024/04/09 10:55:11;;;;;;;7.55;1.80;;;;;;;13.35;100.00;100831.16;5368283;26;20000;-74
2024/04/09 10:57:37;;;;;;;7.72;1.90;;;;;;;13.59;100.00;100838.91;5357723;26;20008;-74
2024/04/09 11:00:09;;;;;;;7.95;1.90;;;;;;;13.70;100.00;100841.50;5368273;26;19996;-65
2024/04/09 11:02:36;;;;;;;8.18;2.08;;;;;;;13.34;100.00;100837.31;5356716;26;20001;-65
2024/04/09 11:05:02;;;;;;;6.85;1.90;;;;;;;13.00;100.00;100854.31;5368076;26;20000;-66
2024/04/09 11:07:31;;;;;;;10.95;2.08;;;;;;;12.85;100.00;100887.13;5361828;26;20000;-73